Time;durP1;ratioP1;P1;durP2;ratioP2;P2;SDS_P1;SDS_P2;PMS_P1;PMS_P2;Temp;Humidity;BMP_temperature;BMP_pressure;BME280_temperature;BME280_humidity;BME280_pressure;Samples;Min_cycle;Max_cycle;Signal;HPM_P1;HPM_P2
2022/04/21 00:00:32;;;;;;;5.28;4.70;;;9.30;91.00;;;;;;4964930;28;20165;-78
2022/04/21 00:02:58;;;;;;;5.07;4.57;;;9.10;91.20;;;;;;4956048;28;20068;-77
2022/04/21 00:05:24;;;;;;;7.95;4.80;;;9.00;91.70;;;;;;4957573;28;20552;-77
2022/04/21 00:07:50;;;;;;;6.68;5.50;;;9.00;92.00;;;;;;4956069;28;20027;-78
2022/04/21 00:10:17;;;;;;;5.32;4.50;;;9.00;92.20;;;;;;4955060;28;20106;-77
2022/04/21 00:12:42;;;;;;;5.40;4.90;;;9.10;92.10;;;;;;4950027;28;20103;-77
2022/04/21 00:15:09;;;;;;;6.80;4.65;;;8.90;92.50;;;;;;4952229;28;20110;-78
2022/04/21 00:17:35;;;;;;;5.80;5.00;;;8.80;92.80;;;;;;4953870;28;20038;-77
2022/04/21 00:20:01;;;;;;;4.88;4.47;;;8.90;92.90;;;;;;4955786;28;20028;-79
2022/04/21 00:25:11;;;;;;;4.93;4.53;;;9.20;92.80;;;;;;4954825;28;20396;-78
2022/04/21 00:27:41;;;;;;;5.30;4.80;;;9.20;92.60;;;;;;4958716;28;20031;-77
2022/04/21 00:30:08;;;;;;;7.10;5.78;;;9.10;92.70;;;;;;4957629;28;20060;-79
2022/04/21 00:32:35;;;;;;;7.10;5.05;;;9.10;92.90;;;;;;4953399;28;20058;-77
2022/04/21 00:35:00;;;;;;;5.20;4.80;;;9.10;93.00;;;;;;4958475;28;20031;-78
2022/04/21 00:37:27;;;;;;;8.63;6.30;;;9.10;93.20;;;;;;4941901;29;20498;-77
2022/04/21 00:39:52;;;;;;;5.78;5.10;;;9.00;93.40;;;;;;4955570;28;20635;-78
2022/04/21 00:42:18;;;;;;;7.43;4.78;;;9.00;93.60;;;;;;4954682;28;20034;-78
2022/04/21 00:44:43;;;;;;;6.38;5.78;;;8.90;93.80;;;;;;4954939;28;20023;-78
2022/04/21 00:47:09;;;;;;;6.70;5.40;;;8.90;93.90;;;;;;4940853;28;20035;-78
2022/04/21 00:49:36;;;;;;;8.52;5.60;;;8.80;94.30;;;;;;4940990;29;20027;-78
2022/04/21 00:52:02;;;;;;;7.90;6.07;;;8.70;94.20;;;;;;4961969;28;20030;-78
2022/04/21 00:54:32;;;;;;;6.18;5.63;;;8.70;94.60;;;;;;4954074;28;20031;-78
2022/04/21 00:56:59;;;;;;;6.82;6.20;;;8.50;95.10;;;;;;4941601;29;20035;-77
2022/04/21 00:59:25;;;;;;;7.90;5.65;;;8.30;95.90;;;;;;4947666;28;20027;-78
2022/04/21 01:04:36;;;;;;;9.02;5.63;;;8.30;96.80;;;;;;4954294;28;20069;-76
2022/04/21 01:07:02;;;;;;;8.02;5.20;;;8.10;97.60;;;;;;4952867;28;20027;-77
2022/04/21 01:09:27;;;;;;;7.05;5.13;;;8.00;98.20;;;;;;4956862;28;20078;-77
2022/04/21 01:11:53;;;;;;;6.82;5.28;;;7.90;98.60;;;;;;4941951;29;20047;-78
2022/04/21 01:14:19;;;;;;;6.35;5.28;;;7.80;99.30;;;;;;4954770;28;20038;-77
2022/04/21 01:16:46;;;;;;;6.78;5.53;;;7.70;99.90;;;;;;4937878;29;20022;-78
2022/04/21 01:19:11;;;;;;;7.25;5.22;;;7.70;99.90;;;;;;4946094;28;20548;-77
2022/04/21 01:21:37;;;;;;;7.75;5.65;;;7.60;99.90;;;;;;4962835;28;20035;-77
2022/04/21 01:24:04;;;;;;;6.55;5.95;;;7.60;99.90;;;;;;4936162;28;20034;-77
2022/04/21 01:26:37;;;;;;;6.00;5.40;;;7.60;99.90;;;;;;4945052;28;20036;-78
2022/04/21 01:29:05;;;;;;;6.18;5.68;;;7.60;99.90;;;;;;4957689;28;20520;-79
2022/04/21 01:31:31;;;;;;;6.30;5.65;;;7.70;99.90;;;;;;4952484;28;20500;-77
2022/04/21 01:33:57;;;;;;;7.50;5.95;;;7.70;99.90;;;;;;4951277;28;20031;-79
2022/04/21 01:36:23;;;;;;;11.30;6.25;;;7.70;99.90;;;;;;4954411;28;20029;-78
2022/04/21 01:41:33;;;;;;;7.53;6.85;;;7.60;99.90;;;;;;4954857;28;20512;-77
2022/04/21 01:43:59;;;;;;;8.32;6.20;;;7.60;99.90;;;;;;4956123;28;20070;-79
2022/04/21 01:46:24;;;;;;;7.20;6.60;;;7.70;99.90;;;;;;4954577;28;20024;-79
2022/04/21 01:48:50;;;;;;;6.80;6.10;;;7.70;99.90;;;;;;4955663;28;20079;-78
2022/04/21 01:51:15;;;;;;;7.72;6.63;;;7.90;99.90;;;;;;4949717;28;20028;-78
2022/04/21 01:53:41;;;;;;;6.65;5.93;;;7.90;99.90;;;;;;4936593;28;20031;-77
2022/04/21 01:56:07;;;;;;;6.68;5.97;;;7.90;99.90;;;;;;4959158;28;20102;-79
2022/04/21 01:58:33;;;;;;;7.32;6.63;;;7.70;99.90;;;;;;4952714;28;20391;-78
2022/04/21 02:00:59;;;;;;;9.88;6.40;;;7.70;99.90;;;;;;4935631;29;20027;-77
2022/04/21 02:03:24;;;;;;;7.72;7.03;;;7.60;99.90;;;;;;4948351;28;20031;-79
2022/04/21 02:05:50;;;;;;;9.80;7.28;;;7.50;99.90;;;;;;4955047;28;20050;-78
2022/04/21 02:08:15;;;;;;;11.60;7.15;;;7.40;99.90;;;;;;4935592;29;20031;-77
2022/04/21 02:10:41;;;;;;;7.45;6.40;;;7.30;99.90;;;;;;4960892;28;20540;-78
2022/04/21 02:13:06;;;;;;;6.93;6.32;;;7.20;99.90;;;;;;4955128;28;20087;-78
2022/04/21 02:15:32;;;;;;;6.82;6.20;;;7.10;99.90;;;;;;4953142;28;20023;-78
2022/04/21 02:18:00;;;;;;;8.23;7.22;;;7.10;99.90;;;;;;4954861;28;20406;-79
2022/04/21 02:20:26;;;;;;;7.38;6.60;;;7.00;99.90;;;;;;4946206;29;20417;-78
2022/04/21 02:22:52;;;;;;;8.00;7.13;;;6.90;99.90;;;;;;4959370;28;20151;-77
2022/04/21 02:25:17;;;;;;;8.07;6.70;;;6.90;99.90;;;;;;4936420;29;20028;-77
2022/04/21 02:27:48;;;;;;;7.70;7.00;;;6.90;99.90;;;;;;4949755;28;20378;-78
2022/04/21 02:30:15;;;;;;;7.45;6.75;;;6.80;99.90;;;;;;4937225;28;20027;-78
2022/04/21 02:32:41;;;;;;;6.80;6.20;;;6.70;99.90;;;;;;4950658;28;20023;-77
2022/04/21 02:35:08;;;;;;;8.60;7.57;;;6.80;99.90;;;;;;4933370;29;20405;-77
2022/04/21 02:37:38;;;;;;;10.00;7.55;;;6.70;99.90;;;;;;4952274;28;20023;-78
2022/04/21 02:40:09;;;;;;;8.30;7.22;;;6.70;99.90;;;;;;4958513;28;20080;-78
2022/04/21 02:42:35;;;;;;;9.68;7.35;;;6.70;99.90;;;;;;4957068;28;20028;-78
2022/04/21 02:45:00;;;;;;;8.55;7.53;;;6.70;99.90;;;;;;4935514;28;20516;-77
2022/04/21 02:47:27;;;;;;;8.75;7.82;;;6.60;99.90;;;;;;4949436;28;20115;-78
2022/04/21 02:49:53;;;;;;;7.43;6.65;;;6.60;99.90;;;;;;4955628;28;20023;-77
2022/04/21 02:52:20;;;;;;;8.93;7.28;;;6.60;99.90;;;;;;4959905;28;20090;-78
2022/04/21 02:57:30;;;;;;;8.73;7.90;;;6.50;99.90;;;;;;4952520;28;20114;-78
2022/04/21 03:00:01;;;;;;;8.32;7.53;;;6.50;99.90;;;;;;4952377;28;20466;-78
2022/04/21 03:02:27;;;;;;;8.52;6.95;;;6.60;99.90;;;;;;4932745;29;20028;-78
2022/04/21 03:04:54;;;;;;;10.05;9.05;;;6.60;99.90;;;;;;4935439;29;20522;-77
2022/04/21 03:07:22;;;;;;;9.20;8.30;;;6.60;99.90;;;;;;4951504;29;20023;-78
2022/04/21 03:09:48;;;;;;;12.30;7.78;;;6.60;99.90;;;;;;4954728;28;20055;-78
2022/04/21 03:12:13;;;;;;;11.07;8.10;;;6.60;99.90;;;;;;4954237;28;20030;-77
2022/04/21 03:14:41;;;;;;;8.75;7.90;;;6.70;99.90;;;;;;4953716;28;20031;-77
2022/04/21 03:17:09;;;;;;;9.50;8.02;;;6.60;99.90;;;;;;4965163;28;20027;-78
2022/04/21 03:19:37;;;;;;;8.80;8.00;;;6.50;99.90;;;;;;4960652;28;20482;-77
2022/04/21 03:24:47;;;;;;;10.35;8.80;;;6.60;99.90;;;;;;4960001;28;20066;-77
2022/04/21 03:27:13;;;;;;;8.43;7.53;;;6.70;99.90;;;;;;4960059;28;20470;-78
2022/04/21 03:29:39;;;;;;;10.45;8.30;;;6.60;99.90;;;;;;4953909;28;20094;-78
2022/04/21 03:32:09;;;;;;;10.43;8.60;;;6.40;99.90;;;;;;4957328;28;20489;-77
2022/04/21 03:34:42;;;;;;;10.00;9.00;;;6.40;99.90;;;;;;4950364;28;20035;-77
2022/04/21 03:37:13;;;;;;;12.13;8.82;;;6.30;99.90;;;;;;4953723;28;20446;-77
2022/04/21 03:39:39;;;;;;;10.05;9.15;;;6.30;99.90;;;;;;4959264;28;20110;-77
2022/04/21 03:42:06;;;;;;;8.50;7.70;;;6.20;99.90;;;;;;4955538;28;20586;-77
2022/04/21 03:44:32;;;;;;;10.18;8.25;;;6.10;99.90;;;;;;4957389;28;20058;-77
2022/04/21 03:46:58;;;;;;;9.88;8.65;;;6.10;99.90;;;;;;4960587;28;20513;-79
2022/04/21 03:49:28;;;;;;;10.32;8.50;;;6.10;99.90;;;;;;4957235;28;20019;-78
2022/04/21 03:51:55;;;;;;;10.07;8.40;;;6.10;99.90;;;;;;4945497;29;20034;-79
2022/04/21 03:54:22;;;;;;;11.40;8.18;;;6.10;99.90;;;;;;4961008;28;20031;-77
2022/04/21 03:56:48;;;;;;;9.77;8.88;;;6.00;99.90;;;;;;4956024;28;20586;-76
2022/04/21 03:59:14;;;;;;;9.75;8.75;;;5.90;99.90;;;;;;4955968;28;20438;-78
2022/04/21 04:01:40;;;;;;;9.65;8.70;;;6.00;99.90;;;;;;4965097;28;20067;-77
2022/04/21 04:04:06;;;;;;;10.68;9.57;;;6.00;99.90;;;;;;4939305;28;20093;-77
2022/04/21 04:11:59;;;;;;;11.23;8.82;;;6.00;99.90;;;;;;4956084;28;20093;-77
2022/04/21 04:14:25;;;;;;;10.48;9.48;;;6.00;99.90;;;;;;4948585;28;20502;-77
2022/04/21 04:16:52;;;;;;;11.88;9.43;;;6.00;99.90;;;;;;4953758;28;20019;-78
2022/04/21 04:19:17;;;;;;;9.63;8.82;;;6.00;99.90;;;;;;4937756;28;20047;-77
2022/04/21 04:21:43;;;;;;;11.85;8.75;;;6.00;99.90;;;;;;4956225;28;20371;-78
2022/04/21 04:24:08;;;;;;;13.05;8.98;;;6.00;99.90;;;;;;4955099;28;20089;-77
2022/04/21 04:26:34;;;;;;;11.07;9.93;;;6.00;99.90;;;;;;4937519;29;20110;-77
2022/04/21 04:29:02;;;;;;;10.25;9.30;;;6.10;99.90;;;;;;4937504;28;20508;-76
2022/04/21 04:31:28;;;;;;;14.80;10.02;;;6.20;99.90;;;;;;4958391;28;20393;-77
2022/04/21 04:33:53;;;;;;;11.68;10.48;;;6.20;99.90;;;;;;4939092;29;20031;-78
2022/04/21 04:36:19;;;;;;;11.23;10.23;;;6.20;99.90;;;;;;4955046;28;20449;-77
2022/04/21 04:38:45;;;;;;;11.48;9.95;;;6.30;99.90;;;;;;4950213;28;20393;-78
2022/04/21 04:43:56;;;;;;;10.27;9.25;;;6.80;99.90;;;;;;4957212;28;20041;-77
2022/04/21 04:46:40;;;;;;;10.15;9.20;;;7.10;99.90;;;;;;4960424;28;20020;-77
2022/04/21 04:49:10;;;;;;;10.45;9.45;;;7.40;99.90;;;;;;4966919;28;20032;-78
2022/04/21 04:51:41;;;;;;;9.85;8.40;;;7.80;99.90;;;;;;4961674;28;20023;-78
2022/04/21 04:54:06;;;;;;;10.57;9.48;;;8.00;99.90;;;;;;4941693;29;20034;-77
2022/04/21 04:56:34;;;;;;;10.18;8.02;;;8.40;99.90;;;;;;4933488;29;20035;-77
2022/04/21 04:59:00;;;;;;;10.68;7.90;;;8.60;99.90;;;;;;4962089;28;20046;-78
2022/04/21 05:01:41;;;;;;;9.38;8.45;;;8.90;99.90;;;;;;4937790;29;20034;-77
2022/04/21 05:04:09;;;;;;;8.50;7.55;;;9.00;99.90;;;;;;4955503;28;20027;-77
2022/04/21 05:06:39;;;;;;;8.48;7.68;;;9.40;99.90;;;;;;4938194;29;20102;-78
2022/04/21 05:09:06;;;;;;;8.73;7.80;;;9.40;99.90;;;;;;4953023;28;20031;-77
2022/04/21 05:11:39;;;;;;;9.52;8.10;;;10.30;99.90;;;;;;4956388;28;20019;-77
2022/04/21 05:14:05;;;;;;;9.07;7.93;;;10.80;99.90;;;;;;4954838;28;20106;-78
2022/04/21 05:16:31;;;;;;;11.90;7.47;;;10.90;99.90;;;;;;4937605;29;20110;-77
2022/04/21 05:18:57;;;;;;;8.05;7.22;;;11.30;99.90;;;;;;4959979;28;20102;-78
2022/04/21 05:21:23;;;;;;;8.38;6.85;;;10.80;99.90;;;;;;4944370;28;20031;-77
2022/04/21 05:23:55;;;;;;;7.95;7.25;;;11.20;99.90;;;;;;4937436;29;20027;-77
2022/04/21 05:26:21;;;;;;;9.05;8.05;;;11.90;99.60;;;;;;4929153;28;20035;-77
2022/04/21 05:28:46;;;;;;;9.35;8.40;;;11.70;99.60;;;;;;4957381;28;20029;-78
2022/04/21 05:31:12;;;;;;;9.48;8.48;;;12.00;99.00;;;;;;4938505;29;20109;-78
2022/04/21 05:33:39;;;;;;;9.70;7.95;;;12.30;98.80;;;;;;4953040;28;20077;-77
2022/04/21 05:36:05;;;;;;;9.75;8.75;;;12.50;98.30;;;;;;4939714;28;20086;-77
2022/04/21 05:38:31;;;;;;;9.43;8.32;;;12.20;98.50;;;;;;4947743;28;20031;-78
2022/04/21 05:40:57;;;;;;;12.23;8.35;;;12.50;97.90;;;;;;4936817;29;20031;-78
2022/04/21 05:43:39;;;;;;;9.60;8.63;;;12.50;97.60;;;;;;4938369;29;20089;-79
2022/04/21 05:46:05;;;;;;;9.85;8.85;;;12.90;97.10;;;;;;4954260;28;20467;-77
2022/04/21 05:48:31;;;;;;;12.15;9.32;;;13.10;96.70;;;;;;4949878;28;20520;-78
2022/04/21 05:50:57;;;;;;;9.70;8.70;;;12.80;96.90;;;;;;4954338;28;20023;-77
2022/04/21 05:53:24;;;;;;;9.27;8.35;;;12.70;97.10;;;;;;4962686;28;20035;-77
2022/04/21 05:55:51;;;;;;;9.43;8.48;;;12.60;97.20;;;;;;4957807;28;20122;-77
2022/04/21 05:58:17;;;;;;;8.82;8.13;;;12.70;96.90;;;;;;4956002;28;21441;-77
2022/04/21 06:00:43;;;;;;;11.40;8.32;;;12.90;96.70;;;;;;4957741;28;20496;-77
2022/04/21 06:03:11;;;;;;;14.35;9.40;;;12.40;97.20;;;;;;4955389;28;20070;-76
2022/04/21 06:05:36;;;;;;;11.63;10.18;;;11.70;98.10;;;;;;4955232;28;20030;-77
2022/04/21 06:08:02;;;;;;;9.82;8.90;;;11.20;99.30;;;;;;4937392;28;20038;-78
2022/04/21 06:10:28;;;;;;;13.45;9.45;;;10.90;99.80;;;;;;4936728;28;20038;-79
2022/04/21 06:12:54;;;;;;;11.70;10.68;;;10.50;99.90;;;;;;4936894;28;20405;-77
2022/04/21 06:15:20;;;;;;;14.02;11.88;;;10.40;99.90;;;;;;4953536;28;20030;-78
2022/04/21 06:17:46;;;;;;;12.48;11.18;;;10.30;99.90;;;;;;4956743;28;20031;-78
2022/04/21 06:20:12;;;;;;;11.90;9.82;;;10.30;99.90;;;;;;4933271;28;20032;-77
2022/04/21 06:22:37;;;;;;;10.35;9.23;;;10.10;99.90;;;;;;4959075;28;20117;-79
2022/04/21 06:25:03;;;;;;;18.20;10.57;;;10.10;99.90;;;;;;4950032;28;20042;-78
2022/04/21 06:27:29;;;;;;;12.00;10.80;;;10.20;99.90;;;;;;4948167;28;20031;-76
2022/04/21 06:29:54;;;;;;;17.17;10.55;;;10.20;99.90;;;;;;4957490;28;20033;-75
2022/04/21 06:32:20;;;;;;;13.60;10.38;;;10.20;99.90;;;;;;4953905;28;20098;-78
2022/04/21 06:34:45;;;;;;;11.80;10.68;;;10.20;99.90;;;;;;4955227;28;20031;-78
2022/04/21 06:37:11;;;;;;;18.05;11.70;;;10.20;99.90;;;;;;4934159;29;20082;-77
2022/04/21 06:39:37;;;;;;;11.65;10.48;;;10.20;99.90;;;;;;4939365;29;20023;-77
2022/04/21 06:42:02;;;;;;;11.32;10.23;;;10.30;99.90;;;;;;4951300;28;20090;-77
2022/04/21 06:49:57;;;;;;;13.23;11.38;;;10.10;99.90;;;;;;4957127;28;20524;-77
2022/04/21 06:52:22;;;;;;;12.90;11.70;;;10.20;99.90;;;;;;4946777;28;20106;-78
2022/04/21 06:54:48;;;;;;;12.07;10.98;;;10.20;99.90;;;;;;4952537;28;20122;-77
2022/04/21 06:57:14;;;;;;;12.50;11.30;;;10.40;99.90;;;;;;4936951;28;20027;-78
2022/04/21 06:59:39;;;;;;;13.95;12.52;;;10.40;99.90;;;;;;4954206;28;20062;-77
2022/04/21 07:02:05;;;;;;;13.35;11.45;;;10.50;99.90;;;;;;4955849;28;20031;-77
2022/04/21 07:04:31;;;;;;;12.00;10.90;;;10.50;99.90;;;;;;4933795;29;20031;-78
2022/04/21 07:06:57;;;;;;;12.55;11.45;;;10.70;99.90;;;;;;4952553;28;20027;-76
2022/04/21 07:09:22;;;;;;;13.30;11.48;;;10.60;99.90;;;;;;4941317;29;20038;-77
2022/04/21 07:11:48;;;;;;;12.15;10.27;;;10.60;99.90;;;;;;4936018;29;20462;-76
2022/04/21 07:14:13;;;;;;;11.98;10.77;;;10.70;99.90;;;;;;4955478;28;20411;-75
2022/04/21 07:16:39;;;;;;;12.90;11.65;;;10.80;99.90;;;;;;4931294;29;20047;-77
2022/04/21 07:19:05;;;;;;;14.30;11.63;;;10.80;99.90;;;;;;4948265;28;20031;-77
2022/04/21 07:21:30;;;;;;;12.95;11.70;;;11.10;99.90;;;;;;4936458;29;20027;-77
2022/04/21 07:23:56;;;;;;;12.32;11.13;;;11.20;99.90;;;;;;4938481;29;20078;-79
2022/04/21 07:26:21;;;;;;;11.57;10.57;;;11.40;99.90;;;;;;4933532;29;20019;-77
2022/04/21 07:28:47;;;;;;;12.05;10.95;;;11.40;99.90;;;;;;4945371;28;20038;-77
2022/04/21 07:31:13;;;;;;;16.10;10.63;;;11.40;99.90;;;;;;4933760;29;20030;-77
2022/04/21 07:33:38;;;;;;;13.63;11.48;;;11.60;99.90;;;;;;4930792;29;20155;-78
2022/04/21 07:36:04;;;;;;;11.98;10.90;;;11.80;99.90;;;;;;4952138;28;20383;-76
2022/04/21 07:38:31;;;;;;;12.45;10.18;;;11.80;99.90;;;;;;4953300;28;20133;-77
2022/04/21 07:40:57;;;;;;;13.57;11.07;;;11.70;99.80;;;;;;4952132;28;20110;-77
2022/04/21 07:43:23;;;;;;;12.60;11.43;;;11.80;99.90;;;;;;4954356;28;20110;-76
2022/04/21 07:45:49;;;;;;;10.95;9.77;;;12.00;99.40;;;;;;4952522;28;20090;-77
2022/04/21 07:48:15;;;;;;;12.15;10.95;;;12.00;99.20;;;;;;4944030;28;20086;-78
2022/04/21 07:50:41;;;;;;;12.57;11.18;;;12.00;99.00;;;;;;4946618;28;20020;-77
2022/04/21 07:53:13;;;;;;;12.57;10.50;;;12.20;99.10;;;;;;4942403;28;20051;-76
2022/04/21 07:55:39;;;;;;;12.43;10.70;;;12.20;99.10;;;;;;4931463;29;20487;-78
2022/04/21 07:58:06;;;;;;;12.60;11.50;;;12.10;99.40;;;;;;4949005;28;20039;-77
2022/04/21 08:00:34;;;;;;;11.57;10.48;;;12.10;99.30;;;;;;4934583;29;20091;-76
2022/04/21 08:03:00;;;;;;;13.95;10.80;;;12.10;99.10;;;;;;4937190;28;20041;-76
2022/04/21 08:05:25;;;;;;;12.65;10.90;;;12.30;99.20;;;;;;4953809;28;20023;-77
2022/04/21 08:07:52;;;;;;;11.88;10.10;;;12.40;98.70;;;;;;4939135;29;20108;-77
2022/04/21 08:10:19;;;;;;;15.82;10.10;;;12.40;98.50;;;;;;4933686;28;20406;-78
2022/04/21 08:12:49;;;;;;;15.13;11.45;;;12.50;98.80;;;;;;4938698;29;20023;-77
2022/04/21 08:15:29;;;;;;;12.10;11.00;;;12.60;98.40;;;;;;4955071;29;20501;-78
2022/04/21 08:18:00;;;;;;;12.05;10.88;;;12.30;99.00;;;;;;4957086;28;20031;-77
2022/04/21 08:20:28;;;;;;;11.77;10.77;;;12.70;98.60;;;;;;4948419;28;20378;-76
2022/04/21 08:22:54;;;;;;;10.90;9.90;;;12.90;97.90;;;;;;4951469;28;20024;-76
2022/04/21 08:33:33;;;;;;;10.20;8.70;;;13.10;97.60;;;;;;4956070;29;20078;-77
2022/04/21 08:35:59;;;;;;;9.57;8.68;;;13.40;96.80;;;;;;4950902;29;20101;-77
2022/04/21 08:38:27;;;;;;;10.45;9.55;;;13.50;96.00;;;;;;4954421;29;20542;-76
2022/04/21 08:40:57;;;;;;;13.55;9.65;;;13.70;95.60;;;;;;4955443;28;20058;-77
2022/04/21 08:43:25;;;;;;;10.52;8.57;;;13.60;95.40;;;;;;4962042;28;20019;-77
2022/04/21 08:45:53;;;;;;;11.07;10.13;;;13.70;95.80;;;;;;4956349;28;20386;-76
2022/04/21 08:48:20;;;;;;;11.77;10.00;;;13.70;95.60;;;;;;4953107;28;20035;-77
2022/04/21 08:50:46;;;;;;;10.10;8.85;;;13.50;95.70;;;;;;4953056;28;20496;-77
2022/04/21 08:53:15;;;;;;;10.82;9.73;;;13.70;95.60;;;;;;4953446;28;20036;-77
2022/04/21 08:55:40;;;;;;;9.82;8.75;;;14.10;95.30;;;;;;4950533;28;20400;-77
2022/04/21 08:58:06;;;;;;;9.77;8.98;;;14.00;95.10;;;;;;4936793;29;20031;-78
2022/04/21 09:00:32;;;;;;;10.60;8.82;;;14.20;94.70;;;;;;4954513;28;20027;-77
2022/04/21 09:02:59;;;;;;;12.18;8.10;;;14.30;94.30;;;;;;4936828;28;20042;-78
2022/04/21 09:05:29;;;;;;;12.10;7.95;;;14.50;93.90;;;;;;4949682;28;20433;-77
2022/04/21 09:07:57;;;;;;;8.60;7.80;;;14.60;93.50;;;;;;4954855;29;20035;-76
2022/04/21 09:10:24;;;;;;;9.45;8.65;;;14.80;93.50;;;;;;4954310;28;20019;-77
2022/04/21 09:12:56;;;;;;;8.98;8.02;;;14.80;93.10;;;;;;4954351;28;20027;-77
2022/04/21 09:15:24;;;;;;;9.55;8.07;;;14.50;93.20;;;;;;4937760;29;20114;-77
2022/04/21 09:17:52;;;;;;;9.82;9.02;;;14.60;93.30;;;;;;4938126;29;20031;-76
2022/04/21 09:20:20;;;;;;;9.15;8.25;;;14.70;93.00;;;;;;4935727;28;20035;-77
2022/04/21 09:22:52;;;;;;;8.98;8.07;;;14.80;92.80;;;;;;4953778;28;20619;-77
2022/04/21 09:25:22;;;;;;;8.45;7.75;;;14.90;92.40;;;;;;4954126;28;20020;-78
2022/04/21 09:27:50;;;;;;;8.25;7.50;;;14.80;92.90;;;;;;4945114;28;20058;-77
2022/04/21 09:30:17;;;;;;;8.60;7.80;;;14.60;92.60;;;;;;4945086;28;20078;-78
2022/04/21 09:33:02;;;;;;;8.52;7.82;;;14.80;92.70;;;;;;4959213;28;20023;-77
2022/04/21 09:35:33;;;;;;;8.57;7.78;;;15.40;91.80;;;;;;4942989;28;20039;-78
2022/04/21 09:38:03;;;;;;;7.93;7.28;;;15.60;90.60;;;;;;4956601;28;20062;-78
2022/04/21 09:40:29;;;;;;;8.18;7.10;;;15.10;91.10;;;;;;4951286;28;20448;-77
2022/04/21 09:43:02;;;;;;;9.02;7.07;;;15.40;90.50;;;;;;4951280;29;20034;-76
2022/04/21 09:48:24;;;;;;;8.35;7.45;;;15.50;90.00;;;;;;4954155;29;20113;-76
2022/04/21 09:50:53;;;;;;;7.45;6.75;;;15.40;90.00;;;;;;4952993;28;20406;-77
2022/04/21 09:53:23;;;;;;;8.82;7.53;;;15.30;90.10;;;;;;4954072;29;20023;-75
2022/04/21 09:55:49;;;;;;;8.40;7.60;;;15.60;90.00;;;;;;4936833;29;20027;-77
2022/04/21 09:58:16;;;;;;;7.88;7.18;;;15.70;90.00;;;;;;4929035;29;20023;-77
2022/04/21 10:00:42;;;;;;;7.78;6.95;;;15.80;90.10;;;;;;4948494;29;20414;-77
2022/04/21 10:03:08;;;;;;;6.72;6.18;;;15.70;90.10;;;;;;4936580;29;20110;-77
2022/04/21 10:05:36;;;;;;;6.53;5.93;;;15.80;90.10;;;;;;4952845;28;20026;-75
2022/04/21 10:08:03;;;;;;;6.72;6.10;;;15.90;88.20;;;;;;4952832;28;20027;-77
2022/04/21 10:10:41;;;;;;;7.10;6.40;;;16.10;88.40;;;;;;4954051;28;20334;-78
2022/04/21 10:13:07;;;;;;;8.77;7.20;;;16.20;89.40;;;;;;4950498;28;20035;-77
2022/04/21 10:15:34;;;;;;;11.13;6.65;;;16.00;88.60;;;;;;4954818;28;20091;-77
2022/04/21 10:18:00;;;;;;;6.82;6.22;;;16.10;88.80;;;;;;4958375;28;20082;-75
2022/04/21 10:20:28;;;;;;;6.20;5.60;;;16.20;87.90;;;;;;4949197;28;20031;-77
2022/04/21 10:22:55;;;;;;;5.88;5.38;;;16.10;87.90;;;;;;4952391;28;20028;-76
2022/04/21 10:25:37;;;;;;;5.97;5.53;;;15.90;88.40;;;;;;4960122;28;20106;-77
2022/04/21 10:28:41;;;;;;;6.57;5.10;;;15.80;88.00;;;;;;4953373;28;20062;-75
2022/04/21 10:31:29;;;;;;;5.63;5.13;;;16.10;88.60;;;;;;4951236;28;20032;-77
2022/04/21 10:34:03;;;;;;;5.97;5.47;;;16.30;88.00;;;;;;4955777;28;20131;-77
2022/04/21 10:36:42;;;;;;;8.25;5.97;;;16.20;87.10;;;;;;4950774;28;20097;-77
2022/04/21 10:39:17;;;;;;;5.75;5.25;;;16.10;87.60;;;;;;4936461;28;20043;-76
2022/04/21 10:41:43;;;;;;;5.93;5.47;;;15.80;87.80;;;;;;4952569;28;20082;-76
2022/04/21 10:44:25;;;;;;;5.47;4.97;;;15.60;88.70;;;;;;4957690;28;20071;-76
2022/04/21 10:47:25;;;;;;;5.43;5.00;;;15.60;88.20;;;;;;4952885;28;20019;-76
2022/04/21 10:49:59;;;;;;;5.13;4.72;;;15.70;89.00;;;;;;4949919;28;20027;-77
2022/04/21 10:57:56;;;;;;;5.32;4.93;;;16.40;88.30;;;;;;4952397;28;20520;-77
2022/04/21 11:00:26;;;;;;;5.07;4.72;;;16.50;87.40;;;;;;4942714;29;20031;-77
2022/04/21 11:03:07;;;;;;;4.93;4.53;;;16.40;87.90;;;;;;4951591;28;20457;-77
2022/04/21 11:05:35;;;;;;;4.65;4.25;;;16.10;88.30;;;;;;4946381;28;20027;-77
2022/04/21 11:08:03;;;;;;;4.38;4.07;;;16.40;87.50;;;;;;4949801;28;20532;-76
2022/04/21 11:10:38;;;;;;;6.07;3.65;;;16.70;87.00;;;;;;4957031;28;20047;-76
2022/04/21 11:13:04;;;;;;;4.53;4.05;;;16.60;87.40;;;;;;4954361;28;20027;-76
2022/04/21 11:15:33;;;;;;;5.47;3.53;;;16.60;86.90;;;;;;4946053;28;20023;-77
2022/04/21 11:18:05;;;;;;;3.50;3.30;;;16.60;86.70;;;;;;4950912;28;20028;-75
2022/04/21 11:20:31;;;;;;;4.00;3.70;;;16.40;86.80;;;;;;4953782;28;20159;-76
2022/04/21 11:22:56;;;;;;;4.07;3.67;;;16.40;87.10;;;;;;4935274;28;20259;-76
2022/04/21 11:25:22;;;;;;;3.40;3.10;;;16.20;87.10;;;;;;4951308;28;20034;-77
2022/04/21 11:27:48;;;;;;;5.72;3.50;;;16.60;87.80;;;;;;4935663;29;20035;-77
2022/04/21 11:30:15;;;;;;;4.97;3.08;;;17.10;85.60;;;;;;4926672;28;20027;-77
2022/04/21 11:32:51;;;;;;;4.00;3.28;;;17.30;85.80;;;;;;4952802;28;22005;-77
2022/04/21 11:35:18;;;;;;;4.13;3.03;;;17.70;84.80;;;;;;4933407;28;20069;-76
2022/04/21 11:37:58;;;;;;;3.35;2.97;;;17.90;84.20;;;;;;4955611;28;20498;-77
2022/04/21 11:40:29;;;;;;;8.05;2.55;;;17.80;84.20;;;;;;4948578;28;20428;-77
2022/04/21 11:42:57;;;;;;;2.40;2.20;;;18.00;83.70;;;;;;4960025;28;20110;-77
2022/04/21 11:45:25;;;;;;;2.25;2.05;;;18.40;83.30;;;;;;4956246;28;20027;-77
2022/04/21 11:47:51;;;;;;;2.22;2.00;;;18.70;82.50;;;;;;4953560;28;20024;-76
2022/04/21 11:50:22;;;;;;;2.28;2.08;;;18.60;81.80;;;;;;4949323;28;20027;-75
2022/04/21 11:52:52;;;;;;;2.72;2.05;;;18.20;81.60;;;;;;4952977;28;20565;-76
2022/04/21 11:55:22;;;;;;;2.30;2.10;;;17.80;82.30;;;;;;4952992;28;20028;-76
2022/04/21 11:57:49;;;;;;;3.65;2.22;;;17.60;82.60;;;;;;4946394;28;20042;-76
2022/04/21 12:00:16;;;;;;;4.82;2.38;;;17.50;82.20;;;;;;4959049;28;20019;-76
2022/04/21 12:08:14;;;;;;;2.00;1.90;;;17.60;82.70;;;;;;4951590;28;20450;-76
2022/04/21 12:10:41;;;;;;;1.95;1.73;;;17.60;81.20;;;;;;4948418;28;20028;-76
2022/04/21 12:13:07;;;;;;;3.10;1.40;;;17.20;81.40;;;;;;4955527;28;20023;-77
2022/04/21 12:15:37;;;;;;;1.30;1.20;;;17.10;81.70;;;;;;4936223;29;20034;-76
2022/04/21 12:18:04;;;;;;;4.30;1.50;;;17.20;81.00;;;;;;4957565;28;20045;-76
2022/04/21 12:20:30;;;;;;;6.30;1.73;;;17.40;81.40;;;;;;4944946;29;20037;-77
2022/04/21 12:22:57;;;;;;;3.00;1.95;;;17.60;81.90;;;;;;4934267;29;20027;-76
2022/04/21 12:25:32;;;;;;;4.28;1.50;;;17.40;82.20;;;;;;4952865;28;20023;-76
2022/04/21 12:28:02;;;;;;;3.78;1.80;;;17.60;81.20;;;;;;4948912;28;20061;-77
2022/04/21 12:30:28;;;;;;;4.67;1.27;;;17.50;80.80;;;;;;4932671;29;20593;-76
2022/04/21 12:32:54;;;;;;;1.75;1.65;;;17.60;81.10;;;;;;4950497;28;20358;-76
2022/04/21 12:35:41;;;;;;;1.70;1.60;;;17.80;80.90;;;;;;4955080;28;20028;-77
2022/04/21 12:40:52;;;;;;;1.92;1.70;;;17.80;80.90;;;;;;4951885;28;20101;-74
2022/04/21 12:43:18;;;;;;;3.00;1.60;;;18.00;80.30;;;;;;4934282;28;20595;-76
2022/04/21 12:45:43;;;;;;;5.72;2.10;;;17.90;80.30;;;;;;4934150;29;20023;-76
2022/04/21 12:48:25;;;;;;;1.80;1.70;;;17.70;81.00;;;;;;4955337;28;20085;-77
2022/04/21 12:50:53;;;;;;;1.80;1.70;;;17.40;80.70;;;;;;4961839;28;20053;-76
2022/04/21 12:53:30;;;;;;;2.80;1.50;;;17.60;80.60;;;;;;4952757;28;20027;-77
2022/04/21 12:56:11;;;;;;;8.80;1.75;;;17.80;80.30;;;;;;4951240;28;20042;-77
2022/04/21 12:58:37;;;;;;;5.97;1.50;;;17.70;80.80;;;;;;4928059;29;20031;-76
2022/04/21 13:01:05;;;;;;;3.47;1.42;;;17.80;80.30;;;;;;4943649;28;20031;-77
2022/04/21 13:03:31;;;;;;;5.20;2.25;;;18.10;80.90;;;;;;4939318;29;20393;-76
2022/04/21 13:05:58;;;;;;;4.07;1.63;;;18.60;79.70;;;;;;4946400;28;20038;-77
2022/04/21 13:08:28;;;;;;;1.52;1.42;;;18.80;79.50;;;;;;4946213;28;20093;-76
2022/04/21 13:10:55;;;;;;;2.07;1.60;;;18.80;77.30;;;;;;4952647;28;20486;-76
2022/04/21 13:13:21;;;;;;;3.47;2.72;;;18.70;78.20;;;;;;4950693;28;20027;-76
2022/04/21 13:15:47;;;;;;;3.88;1.33;;;18.80;78.70;;;;;;4954387;28;20034;-76
2022/04/21 13:18:13;;;;;;;1.90;1.67;;;18.60;78.50;;;;;;4950161;28;20054;-77
2022/04/21 13:23:25;;;;;;;2.15;1.98;;;18.90;78.60;;;;;;4946733;28;20058;-77
2022/04/21 13:25:52;;;;;;;3.30;2.13;;;19.00;78.30;;;;;;4929020;29;20023;-78
2022/04/21 13:28:18;;;;;;;2.13;1.80;;;18.80;77.90;;;;;;4953204;28;20118;-77
2022/04/21 13:30:43;;;;;;;1.73;1.52;;;19.00;78.10;;;;;;4952626;28;20525;-76
2022/04/21 13:33:24;;;;;;;1.33;1.23;;;19.30;77.60;;;;;;4952556;28;20041;-77
2022/04/21 13:35:54;;;;;;;6.50;1.88;;;19.50;76.50;;;;;;4951205;29;20033;-77
2022/04/21 13:38:21;;;;;;;3.92;1.65;;;19.50;75.50;;;;;;4942897;28;20031;-77
2022/04/21 13:40:47;;;;;;;1.50;1.40;;;19.70;74.40;;;;;;4951799;28;20024;-77
2022/04/21 13:43:12;;;;;;;2.42;1.70;;;19.60;75.20;;;;;;4946446;29;20038;-78